sensor_id;sensor_type;location;lat;lon;timestamp;P1;durP1;ratioP1;P2;durP2;ratioP2
20093;SDS011;10206;48.012;10.030;2023-04-06T00:01:40;16.27;;;10.73;;
20093;SDS011;10206;48.012;10.030;2023-04-06T00:04:06;14.07;;;9.87;;
20093;SDS011;10206;48.012;10.030;2023-04-06T00:06:33;14.90;;;10.37;;
20093;SDS011;10206;48.012;10.030;2023-04-06T00:08:59;17.13;;;10.37;;
20093;SDS011;10206;48.012;10.030;2023-04-06T00:11:26;15.90;;;11.00;;
20093;SDS011;10206;48.012;10.030;2023-04-06T00:13:52;16.73;;;10.67;;
20093;SDS011;10206;48.012;10.030;2023-04-06T00:16:18;16.23;;;10.87;;
20093;SDS011;10206;48.012;10.030;2023-04-06T00:18:45;21.77;;;10.63;;
20093;SDS011;10206;48.012;10.030;2023-04-06T00:21:12;13.70;;;10.10;;
20093;SDS011;10206;48.012;10.030;2023-04-06T00:23:39;17.03;;;10.80;;
20093;SDS011;10206;48.012;10.030;2023-04-06T00:26:05;16.13;;;10.67;;
20093;SDS011;10206;48.012;10.030;2023-04-06T00:28:33;16.47;;;11.03;;
20093;SDS011;10206;48.012;10.030;2023-04-06T00:30:59;15.63;;;10.50;;
20093;SDS011;10206;48.012;10.030;2023-04-06T00:33:25;14.97;;;10.13;;
20093;SDS011;10206;48.012;10.030;2023-04-06T00:35:51;15.57;;;10.80;;
20093;SDS011;10206;48.012;10.030;2023-04-06T00:38:17;14.87;;;10.30;;
20093;SDS011;10206;48.012;10.030;2023-04-06T00:40:43;17.17;;;11.23;;
20093;SDS011;10206;48.012;10.030;2023-04-06T00:43:10;17.10;;;11.57;;
20093;SDS011;10206;48.012;10.030;2023-04-06T00:45:37;19.17;;;11.83;;
20093;SDS011;10206;48.012;10.030;2023-04-06T00:48:04;15.87;;;11.43;;
20093;SDS011;10206;48.012;10.030;2023-04-06T00:50:32;17.73;;;11.43;;
20093;SDS011;10206;48.012;10.030;2023-04-06T00:52:58;18.37;;;11.30;;
20093;SDS011;10206;48.012;10.030;2023-04-06T00:55:26;17.03;;;11.43;;
20093;SDS011;10206;48.012;10.030;2023-04-06T00:57:52;16.53;;;11.00;;
20093;SDS011;10206;48.012;10.030;2023-04-06T01:00:19;16.77;;;11.30;;
20093;SDS011;10206;48.012;10.030;2023-04-06T01:02:45;18.70;;;12.53;;
20093;SDS011;10206;48.012;10.030;2023-04-06T01:05:13;18.70;;;11.50;;
20093;SDS011;10206;48.012;10.030;2023-04-06T01:07:39;18.87;;;11.77;;
20093;SDS011;10206;48.012;10.030;2023-04-06T01:10:05;18.67;;;11.97;;
20093;SDS011;10206;48.012;10.030;2023-04-06T01:12:32;19.30;;;12.37;;
20093;SDS011;10206;48.012;10.030;2023-04-06T01:14:58;19.40;;;12.53;;
20093;SDS011;10206;48.012;10.030;2023-04-06T01:17:25;17.83;;;12.20;;
20093;SDS011;10206;48.012;10.030;2023-04-06T01:19:51;18.23;;;12.33;;
20093;SDS011;10206;48.012;10.030;2023-04-06T01:22:18;18.33;;;12.27;;
20093;SDS011;10206;48.012;10.030;2023-04-06T01:24:45;18.17;;;12.23;;
20093;SDS011;10206;48.012;10.030;2023-04-06T01:27:12;19.00;;;12.27;;
20093;SDS011;10206;48.012;10.030;2023-04-06T01:29:38;19.53;;;12.53;;
20093;SDS011;10206;48.012;10.030;2023-04-06T01:32:08;18.53;;;11.90;;
20093;SDS011;10206;48.012;10.030;2023-04-06T01:34:34;19.10;;;12.30;;
20093;SDS011;10206;48.012;10.030;2023-04-06T01:37:00;18.87;;;11.67;;
20093;SDS011;10206;48.012;10.030;2023-04-06T01:39:26;16.90;;;10.73;;
20093;SDS011;10206;48.012;10.030;2023-04-06T01:41:53;16.93;;;11.53;;
20093;SDS011;10206;48.012;10.030;2023-04-06T01:44:19;17.37;;;11.40;;
20093;SDS011;10206;48.012;10.030;2023-04-06T01:46:45;17.73;;;11.27;;
20093;SDS011;10206;48.012;10.030;2023-04-06T01:49:12;15.73;;;11.20;;
20093;SDS011;10206;48.012;10.030;2023-04-06T01:51:38;16.97;;;11.87;;
20093;SDS011;10206;48.012;10.030;2023-04-06T01:54:04;18.97;;;12.33;;
20093;SDS011;10206;48.012;10.030;2023-04-06T01:56:30;17.93;;;12.33;;
20093;SDS011;10206;48.012;10.030;2023-04-06T01:58:56;16.80;;;11.83;;
20093;SDS011;10206;48.012;10.030;2023-04-06T02:01:23;18.23;;;12.53;;
20093;SDS011;10206;48.012;10.030;2023-04-06T02:03:49;17.53;;;11.90;;
20093;SDS011;10206;48.012;10.030;2023-04-06T02:06:15;18.40;;;12.10;;
20093;SDS011;10206;48.012;10.030;2023-04-06T02:08:41;16.03;;;10.80;;
20093;SDS011;10206;48.012;10.030;2023-04-06T02:11:07;17.17;;;11.17;;
20093;SDS011;10206;48.012;10.030;2023-04-06T02:13:33;18.03;;;12.00;;
20093;SDS011;10206;48.012;10.030;2023-04-06T02:16:00;19.53;;;12.30;;
20093;SDS011;10206;48.012;10.030;2023-04-06T02:18:27;16.50;;;11.73;;
20093;SDS011;10206;48.012;10.030;2023-04-06T02:20:55;17.10;;;11.50;;
20093;SDS011;10206;48.012;10.030;2023-04-06T02:23:21;17.03;;;11.53;;
20093;SDS011;10206;48.012;10.030;2023-04-06T02:25:48;16.97;;;11.83;;
20093;SDS011;10206;48.012;10.030;2023-04-06T02:28:14;17.53;;;11.77;;
20093;SDS011;10206;48.012;10.030;2023-04-06T02:30:40;17.83;;;11.67;;
20093;SDS011;10206;48.012;10.030;2023-04-06T02:33:06;18.77;;;11.67;;
20093;SDS011;10206;48.012;10.030;2023-04-06T02:35:32;19.67;;;12.00;;
20093;SDS011;10206;48.012;10.030;2023-04-06T02:37:58;19.03;;;12.13;;
20093;SDS011;10206;48.012;10.030;2023-04-06T02:40:25;18.17;;;11.63;;
20093;SDS011;10206;48.012;10.030;2023-04-06T02:42:51;17.37;;;11.77;;
20093;SDS011;10206;48.012;10.030;2023-04-06T02:45:17;17.23;;;11.50;;
20093;SDS011;10206;48.012;10.030;2023-04-06T02:47:43;18.33;;;12.13;;
20093;SDS011;10206;48.012;10.030;2023-04-06T02:50:09;17.50;;;11.63;;
20093;SDS011;10206;48.012;10.030;2023-04-06T02:52:35;18.53;;;11.80;;
20093;SDS011;10206;48.012;10.030;2023-04-06T02:55:02;17.93;;;12.17;;
20093;SDS011;10206;48.012;10.030;2023-04-06T02:57:28;20.30;;;12.50;;
20093;SDS011;10206;48.012;10.030;2023-04-06T02:59:54;16.47;;;11.50;;
20093;SDS011;10206;48.012;10.030;2023-04-06T03:02:20;18.50;;;11.50;;
20093;SDS011;10206;48.012;10.030;2023-04-06T03:04:46;19.63;;;11.07;;
20093;SDS011;10206;48.012;10.030;2023-04-06T03:07:13;20.83;;;11.93;;
20093;SDS011;10206;48.012;10.030;2023-04-06T03:09:39;17.97;;;11.70;;
20093;SDS011;10206;48.012;10.030;2023-04-06T03:12:05;17.27;;;11.27;;
20093;SDS011;10206;48.012;10.030;2023-04-06T03:14:31;20.57;;;13.23;;
20093;SDS011;10206;48.012;10.030;2023-04-06T03:16:58;19.23;;;12.57;;
20093;SDS011;10206;48.012;10.030;2023-04-06T03:19:24;21.10;;;11.80;;
20093;SDS011;10206;48.012;10.030;2023-04-06T03:21:50;16.30;;;11.17;;
20093;SDS011;10206;48.012;10.030;2023-04-06T03:24:16;19.03;;;11.53;;
20093;SDS011;10206;48.012;10.030;2023-04-06T03:26:42;17.33;;;11.53;;
20093;SDS011;10206;48.012;10.030;2023-04-06T03:29:09;18.37;;;11.47;;
20093;SDS011;10206;48.012;10.030;2023-04-06T03:31:35;19.37;;;12.00;;
20093;SDS011;10206;48.012;10.030;2023-04-06T03:34:01;20.57;;;12.77;;
20093;SDS011;10206;48.012;10.030;2023-04-06T03:36:27;19.63;;;12.07;;
20093;SDS011;10206;48.012;10.030;2023-04-06T03:38:53;18.27;;;11.83;;
20093;SDS011;10206;48.012;10.030;2023-04-06T03:41:19;19.53;;;11.87;;
20093;SDS011;10206;48.012;10.030;2023-04-06T03:43:45;19.00;;;12.10;;
20093;SDS011;10206;48.012;10.030;2023-04-06T03:46:12;22.27;;;13.07;;
20093;SDS011;10206;48.012;10.030;2023-04-06T03:48:38;19.07;;;12.70;;
20093;SDS011;10206;48.012;10.030;2023-04-06T03:51:04;22.57;;;13.50;;
20093;SDS011;10206;48.012;10.030;2023-04-06T03:53:30;23.40;;;13.90;;
20093;SDS011;10206;48.012;10.030;2023-04-06T03:55:56;22.43;;;14.80;;
20093;SDS011;10206;48.012;10.030;2023-04-06T03:58:22;24.93;;;14.87;;
20093;SDS011;10206;48.012;10.030;2023-04-06T04:00:49;28.37;;;16.30;;
20093;SDS011;10206;48.012;10.030;2023-04-06T04:03:15;33.77;;;19.00;;
20093;SDS011;10206;48.012;10.030;2023-04-06T04:05:41;37.07;;;19.83;;
20093;SDS011;10206;48.012;10.030;2023-04-06T04:08:08;37.13;;;18.33;;
20093;SDS011;10206;48.012;10.030;2023-04-06T04:10:34;37.80;;;19.13;;
20093;SDS011;10206;48.012;10.030;2023-04-06T04:13:00;41.27;;;22.20;;
20093;SDS011;10206;48.012;10.030;2023-04-06T04:15:26;57.10;;;26.20;;
20093;SDS011;10206;48.012;10.030;2023-04-06T04:17:52;38.60;;;19.90;;
20093;SDS011;10206;48.012;10.030;2023-04-06T04:20:18;38.33;;;20.27;;
20093;SDS011;10206;48.012;10.030;2023-04-06T04:22:44;38.20;;;20.03;;
20093;SDS011;10206;48.012;10.030;2023-04-06T04:25:10;50.07;;;26.97;;
20093;SDS011;10206;48.012;10.030;2023-04-06T04:27:37;43.40;;;22.30;;
20093;SDS011;10206;48.012;10.030;2023-04-06T04:30:03;38.07;;;20.70;;
20093;SDS011;10206;48.012;10.030;2023-04-06T04:32:30;37.57;;;20.23;;
20093;SDS011;10206;48.012;10.030;2023-04-06T04:34:56;36.03;;;19.17;;
20093;SDS011;10206;48.012;10.030;2023-04-06T04:37:22;27.43;;;14.50;;
20093;SDS011;10206;48.012;10.030;2023-04-06T04:39:49;25.57;;;13.03;;
20093;SDS011;10206;48.012;10.030;2023-04-06T04:42:15;20.23;;;12.77;;
20093;SDS011;10206;48.012;10.030;2023-04-06T04:44:41;21.83;;;12.97;;
20093;SDS011;10206;48.012;10.030;2023-04-06T04:47:08;21.97;;;12.87;;
20093;SDS011;10206;48.012;10.030;2023-04-06T04:49:34;20.17;;;13.07;;
20093;SDS011;10206;48.012;10.030;2023-04-06T04:52:00;22.93;;;12.80;;
20093;SDS011;10206;48.012;10.030;2023-04-06T04:54:26;23.13;;;12.53;;
20093;SDS011;10206;48.012;10.030;2023-04-06T04:56:52;22.43;;;12.73;;
20093;SDS011;10206;48.012;10.030;2023-04-06T04:59:18;19.50;;;11.87;;
20093;SDS011;10206;48.012;10.030;2023-04-06T05:01:45;23.10;;;13.43;;
20093;SDS011;10206;48.012;10.030;2023-04-06T05:04:11;32.33;;;17.87;;
20093;SDS011;10206;48.012;10.030;2023-04-06T05:06:37;37.30;;;18.33;;
20093;SDS011;10206;48.012;10.030;2023-04-06T05:09:03;29.07;;;16.53;;
20093;SDS011;10206;48.012;10.030;2023-04-06T05:11:29;31.30;;;16.93;;
20093;SDS011;10206;48.012;10.030;2023-04-06T05:13:55;24.60;;;15.53;;
20093;SDS011;10206;48.012;10.030;2023-04-06T05:16:22;30.23;;;16.83;;
20093;SDS011;10206;48.012;10.030;2023-04-06T05:18:48;31.90;;;17.57;;
20093;SDS011;10206;48.012;10.030;2023-04-06T05:21:14;26.50;;;15.67;;
20093;SDS011;10206;48.012;10.030;2023-04-06T05:23:40;29.13;;;16.47;;
20093;SDS011;10206;48.012;10.030;2023-04-06T05:26:06;30.70;;;18.47;;
20093;SDS011;10206;48.012;10.030;2023-04-06T05:28:33;29.97;;;19.17;;
20093;SDS011;10206;48.012;10.030;2023-04-06T05:30:59;28.03;;;18.40;;
20093;SDS011;10206;48.012;10.030;2023-04-06T05:33:25;27.23;;;18.30;;
20093;SDS011;10206;48.012;10.030;2023-04-06T05:35:51;25.30;;;17.70;;
20093;SDS011;10206;48.012;10.030;2023-04-06T05:38:17;24.80;;;16.83;;
20093;SDS011;10206;48.012;10.030;2023-04-06T05:40:43;22.07;;;14.80;;
20093;SDS011;10206;48.012;10.030;2023-04-06T05:43:10;21.73;;;14.10;;
20093;SDS011;10206;48.012;10.030;2023-04-06T05:45:36;20.23;;;13.77;;
20093;SDS011;10206;48.012;10.030;2023-04-06T05:48:02;20.93;;;14.20;;
20093;SDS011;10206;48.012;10.030;2023-04-06T05:50:28;29.47;;;15.30;;
20093;SDS011;10206;48.012;10.030;2023-04-06T05:52:55;23.37;;;15.13;;
20093;SDS011;10206;48.012;10.030;2023-04-06T05:55:21;24.30;;;14.60;;
20093;SDS011;10206;48.012;10.030;2023-04-06T05:57:47;21.57;;;14.40;;
20093;SDS011;10206;48.012;10.030;2023-04-06T06:00:13;23.03;;;13.83;;
20093;SDS011;10206;48.012;10.030;2023-04-06T06:02:40;22.00;;;13.30;;
20093;SDS011;10206;48.012;10.030;2023-04-06T06:05:07;20.77;;;13.40;;
20093;SDS011;10206;48.012;10.030;2023-04-06T06:07:34;21.63;;;12.90;;
20093;SDS011;10206;48.012;10.030;2023-04-06T06:10:01;21.67;;;12.83;;
20093;SDS011;10206;48.012;10.030;2023-04-06T06:12:27;20.47;;;13.47;;
20093;SDS011;10206;48.012;10.030;2023-04-06T06:14:54;21.70;;;13.70;;
20093;SDS011;10206;48.012;10.030;2023-04-06T06:17:20;28.00;;;15.93;;
20093;SDS011;10206;48.012;10.030;2023-04-06T06:19:46;25.87;;;15.97;;
20093;SDS011;10206;48.012;10.030;2023-04-06T06:22:12;25.43;;;15.40;;
20093;SDS011;10206;48.012;10.030;2023-04-06T06:24:38;22.03;;;14.17;;
20093;SDS011;10206;48.012;10.030;2023-04-06T06:27:05;23.77;;;14.57;;
20093;SDS011;10206;48.012;10.030;2023-04-06T06:29:32;27.27;;;14.67;;
20093;SDS011;10206;48.012;10.030;2023-04-06T06:31:58;23.57;;;14.60;;
20093;SDS011;10206;48.012;10.030;2023-04-06T06:34:25;22.97;;;13.97;;
20093;SDS011;10206;48.012;10.030;2023-04-06T06:36:51;23.00;;;15.23;;
20093;SDS011;10206;48.012;10.030;2023-04-06T06:39:19;25.43;;;15.63;;
20093;SDS011;10206;48.012;10.030;2023-04-06T06:41:45;22.30;;;14.67;;
20093;SDS011;10206;48.012;10.030;2023-04-06T06:44:12;22.70;;;14.37;;
20093;SDS011;10206;48.012;10.030;2023-04-06T06:46:38;19.37;;;13.37;;
20093;SDS011;10206;48.012;10.030;2023-04-06T06:49:04;23.33;;;14.97;;
20093;SDS011;10206;48.012;10.030;2023-04-06T06:51:30;23.43;;;15.33;;
20093;SDS011;10206;48.012;10.030;2023-04-06T06:53:56;21.60;;;14.50;;
20093;SDS011;10206;48.012;10.030;2023-04-06T06:56:23;22.73;;;14.90;;
20093;SDS011;10206;48.012;10.030;2023-04-06T06:58:50;25.30;;;16.30;;
20093;SDS011;10206;48.012;10.030;2023-04-06T07:01:16;25.77;;;15.20;;
20093;SDS011;10206;48.012;10.030;2023-04-06T07:03:42;28.47;;;16.17;;
20093;SDS011;10206;48.012;10.030;2023-04-06T07:06:09;26.93;;;14.70;;
20093;SDS011;10206;48.012;10.030;2023-04-06T07:08:35;22.30;;;15.20;;
20093;SDS011;10206;48.012;10.030;2023-04-06T07:11:01;23.70;;;13.63;;
20093;SDS011;10206;48.012;10.030;2023-04-06T07:13:27;20.80;;;14.10;;
20093;SDS011;10206;48.012;10.030;2023-04-06T07:15:53;19.53;;;14.00;;
20093;SDS011;10206;48.012;10.030;2023-04-06T07:18:20;21.07;;;15.50;;
20093;SDS011;10206;48.012;10.030;2023-04-06T07:20:47;20.20;;;13.83;;
20093;SDS011;10206;48.012;10.030;2023-04-06T07:23:13;17.67;;;12.33;;
20093;SDS011;10206;48.012;10.030;2023-04-06T07:25:40;18.60;;;11.80;;
20093;SDS011;10206;48.012;10.030;2023-04-06T07:28:06;17.07;;;12.37;;
20093;SDS011;10206;48.012;10.030;2023-04-06T07:30:33;16.50;;;12.47;;
20093;SDS011;10206;48.012;10.030;2023-04-06T07:32:59;17.50;;;12.90;;
20093;SDS011;10206;48.012;10.030;2023-04-06T07:35:25;19.33;;;12.90;;
20093;SDS011;10206;48.012;10.030;2023-04-06T07:37:52;19.20;;;14.20;;
20093;SDS011;10206;48.012;10.030;2023-04-06T07:40:19;20.27;;;14.07;;
20093;SDS011;10206;48.012;10.030;2023-04-06T07:42:45;17.07;;;11.43;;
20093;SDS011;10206;48.012;10.030;2023-04-06T07:45:12;15.57;;;11.10;;
20093;SDS011;10206;48.012;10.030;2023-04-06T07:47:38;14.93;;;9.43;;
20093;SDS011;10206;48.012;10.030;2023-04-06T07:50:04;13.10;;;9.77;;
20093;SDS011;10206;48.012;10.030;2023-04-06T07:52:31;13.07;;;9.07;;
20093;SDS011;10206;48.012;10.030;2023-04-06T07:54:57;13.60;;;9.60;;
20093;SDS011;10206;48.012;10.030;2023-04-06T07:57:24;11.57;;;9.10;;
20093;SDS011;10206;48.012;10.030;2023-04-06T07:59:50;11.23;;;8.93;;
20093;SDS011;10206;48.012;10.030;2023-04-06T08:02:16;13.10;;;9.57;;
20093;SDS011;10206;48.012;10.030;2023-04-06T08:04:43;47.20;;;26.00;;
20093;SDS011;10206;48.012;10.030;2023-04-06T08:07:09;61.27;;;33.00;;
20093;SDS011;10206;48.012;10.030;2023-04-06T08:09:35;15.83;;;11.60;;
20093;SDS011;10206;48.012;10.030;2023-04-06T08:12:02;12.33;;;9.63;;
20093;SDS011;10206;48.012;10.030;2023-04-06T08:14:28;18.50;;;11.13;;
20093;SDS011;10206;48.012;10.030;2023-04-06T08:16:54;31.53;;;19.67;;
20093;SDS011;10206;48.012;10.030;2023-04-06T08:19:20;18.37;;;12.13;;
20093;SDS011;10206;48.012;10.030;2023-04-06T08:21:47;15.70;;;10.43;;
20093;SDS011;10206;48.012;10.030;2023-04-06T08:24:13;14.50;;;9.83;;
20093;SDS011;10206;48.012;10.030;2023-04-06T08:26:40;14.30;;;9.00;;
20093;SDS011;10206;48.012;10.030;2023-04-06T08:29:06;13.43;;;9.77;;
20093;SDS011;10206;48.012;10.030;2023-04-06T08:31:35;18.10;;;9.97;;
20093;SDS011;10206;48.012;10.030;2023-04-06T08:34:03;14.83;;;9.73;;
20093;SDS011;10206;48.012;10.030;2023-04-06T08:36:30;13.30;;;8.60;;
20093;SDS011;10206;48.012;10.030;2023-04-06T08:38:56;13.20;;;9.20;;
20093;SDS011;10206;48.012;10.030;2023-04-06T08:41:23;14.23;;;10.17;;
20093;SDS011;10206;48.012;10.030;2023-04-06T08:43:53;14.13;;;9.13;;
20093;SDS011;10206;48.012;10.030;2023-04-06T08:46:23;12.37;;;9.27;;
20093;SDS011;10206;48.012;10.030;2023-04-06T08:48:56;13.77;;;9.13;;
20093;SDS011;10206;48.012;10.030;2023-04-06T08:51:24;12.40;;;9.37;;
20093;SDS011;10206;48.012;10.030;2023-04-06T08:53:52;14.27;;;9.53;;
20093;SDS011;10206;48.012;10.030;2023-04-06T08:56:25;14.60;;;9.20;;
20093;SDS011;10206;48.012;10.030;2023-04-06T08:58:53;14.67;;;10.17;;
20093;SDS011;10206;48.012;10.030;2023-04-06T09:01:20;12.90;;;9.07;;
20093;SDS011;10206;48.012;10.030;2023-04-06T09:03:51;11.57;;;9.20;;
20093;SDS011;10206;48.012;10.030;2023-04-06T09:06:21;12.90;;;8.80;;
20093;SDS011;10206;48.012;10.030;2023-04-06T09:08:47;11.93;;;9.40;;
20093;SDS011;10206;48.012;10.030;2023-04-06T09:11:14;14.33;;;8.53;;
20093;SDS011;10206;48.012;10.030;2023-04-06T09:13:50;17.43;;;10.17;;
20093;SDS011;10206;48.012;10.030;2023-04-06T09:16:18;9.70;;;8.13;;
20093;SDS011;10206;48.012;10.030;2023-04-06T09:18:45;11.33;;;9.00;;
20093;SDS011;10206;48.012;10.030;2023-04-06T09:21:12;11.83;;;9.23;;
20093;SDS011;10206;48.012;10.030;2023-04-06T09:23:41;12.17;;;8.77;;
20093;SDS011;10206;48.012;10.030;2023-04-06T09:26:09;10.30;;;8.63;;
20093;SDS011;10206;48.012;10.030;2023-04-06T09:28:43;9.90;;;7.80;;
20093;SDS011;10206;48.012;10.030;2023-04-06T09:31:14;10.97;;;7.43;;
20093;SDS011;10206;48.012;10.030;2023-04-06T09:33:41;11.43;;;8.50;;
20093;SDS011;10206;48.012;10.030;2023-04-06T09:36:11;11.67;;;8.20;;
20093;SDS011;10206;48.012;10.030;2023-04-06T09:39:02;11.33;;;8.20;;
20093;SDS011;10206;48.012;10.030;2023-04-06T09:41:28;11.03;;;7.90;;
20093;SDS011;10206;48.012;10.030;2023-04-06T09:44:05;10.90;;;7.80;;
20093;SDS011;10206;48.012;10.030;2023-04-06T09:46:38;9.43;;;7.20;;
20093;SDS011;10206;48.012;10.030;2023-04-06T09:49:06;11.97;;;7.90;;
20093;SDS011;10206;48.012;10.030;2023-04-06T09:51:36;10.47;;;8.20;;
20093;SDS011;10206;48.012;10.030;2023-04-06T09:54:08;12.00;;;8.47;;
20093;SDS011;10206;48.012;10.030;2023-04-06T10:00:00;11.07;;;7.50;;
20093;SDS011;10206;48.012;10.030;2023-04-06T10:02:41;11.27;;;8.70;;
20093;SDS011;10206;48.012;10.030;2023-04-06T10:05:15;11.57;;;7.90;;
20093;SDS011;10206;48.012;10.030;2023-04-06T10:07:52;10.07;;;7.73;;
20093;SDS011;10206;48.012;10.030;2023-04-06T10:10:22;8.90;;;7.33;;
20093;SDS011;10206;48.012;10.030;2023-04-06T10:12:48;8.60;;;7.20;;
20093;SDS011;10206;48.012;10.030;2023-04-06T10:15:15;8.47;;;7.50;;
20093;SDS011;10206;48.012;10.030;2023-04-06T10:17:42;8.87;;;6.97;;
20093;SDS011;10206;48.012;10.030;2023-04-06T10:20:10;8.80;;;7.40;;
20093;SDS011;10206;48.012;10.030;2023-04-06T10:25:28;8.83;;;6.30;;
20093;SDS011;10206;48.012;10.030;2023-04-06T10:28:04;9.67;;;6.97;;
20093;SDS011;10206;48.012;10.030;2023-04-06T10:30:36;9.20;;;6.50;;
20093;SDS011;10206;48.012;10.030;2023-04-06T10:33:14;6.90;;;5.67;;
20093;SDS011;10206;48.012;10.030;2023-04-06T10:35:42;7.53;;;5.87;;
20093;SDS011;10206;48.012;10.030;2023-04-06T10:38:08;7.83;;;6.53;;
20093;SDS011;10206;48.012;10.030;2023-04-06T10:40:37;9.00;;;6.60;;
20093;SDS011;10206;48.012;10.030;2023-04-06T10:43:10;8.80;;;6.83;;
20093;SDS011;10206;48.012;10.030;2023-04-06T10:45:56;7.23;;;6.47;;
20093;SDS011;10206;48.012;10.030;2023-04-06T10:48:25;10.30;;;6.90;;
20093;SDS011;10206;48.012;10.030;2023-04-06T10:51:12;11.00;;;7.37;;
20093;SDS011;10206;48.012;10.030;2023-04-06T10:53:41;9.50;;;6.77;;
20093;SDS011;10206;48.012;10.030;2023-04-06T10:56:15;9.87;;;7.50;;
20093;SDS011;10206;48.012;10.030;2023-04-06T10:58:50;8.10;;;6.03;;
20093;SDS011;10206;48.012;10.030;2023-04-06T11:01:19;9.23;;;6.70;;
20093;SDS011;10206;48.012;10.030;2023-04-06T11:03:50;8.00;;;6.03;;
20093;SDS011;10206;48.012;10.030;2023-04-06T11:06:21;7.53;;;6.17;;
20093;SDS011;10206;48.012;10.030;2023-04-06T11:08:50;8.40;;;6.10;;
20093;SDS011;10206;48.012;10.030;2023-04-06T11:11:17;7.90;;;6.90;;
20093;SDS011;10206;48.012;10.030;2023-04-06T11:16:21;9.00;;;6.50;;
20093;SDS011;10206;48.012;10.030;2023-04-06T11:18:55;9.00;;;7.47;;
20093;SDS011;10206;48.012;10.030;2023-04-06T11:24:10;7.57;;;5.83;;
20093;SDS011;10206;48.012;10.030;2023-04-06T11:26:41;7.50;;;6.20;;
20093;SDS011;10206;48.012;10.030;2023-04-06T11:29:09;6.93;;;5.50;;
20093;SDS011;10206;48.012;10.030;2023-04-06T11:31:39;7.53;;;5.80;;
20093;SDS011;10206;48.012;10.030;2023-04-06T11:34:10;8.13;;;6.60;;
20093;SDS011;10206;48.012;10.030;2023-04-06T11:36:48;8.83;;;6.70;;
20093;SDS011;10206;48.012;10.030;2023-04-06T11:39:19;9.40;;;6.63;;
20093;SDS011;10206;48.012;10.030;2023-04-06T11:41:49;7.57;;;6.50;;
20093;SDS011;10206;48.012;10.030;2023-04-06T11:44:28;8.90;;;6.60;;
20093;SDS011;10206;48.012;10.030;2023-04-06T11:46:57;8.80;;;7.43;;
20093;SDS011;10206;48.012;10.030;2023-04-06T11:49:26;8.27;;;6.77;;
20093;SDS011;10206;48.012;10.030;2023-04-06T11:51:56;8.73;;;6.30;;
20093;SDS011;10206;48.012;10.030;2023-04-06T11:54:30;8.63;;;6.97;;
20093;SDS011;10206;48.012;10.030;2023-04-06T11:56:57;9.90;;;7.33;;
20093;SDS011;10206;48.012;10.030;2023-04-06T11:59:23;7.73;;;6.40;;
20093;SDS011;10206;48.012;10.030;2023-04-06T12:01:49;8.53;;;7.40;;
20093;SDS011;10206;48.012;10.030;2023-04-06T12:04:17;7.70;;;6.40;;
20093;SDS011;10206;48.012;10.030;2023-04-06T12:06:43;8.40;;;6.87;;
20093;SDS011;10206;48.012;10.030;2023-04-06T12:09:09;8.33;;;6.73;;
20093;SDS011;10206;48.012;10.030;2023-04-06T12:11:35;8.67;;;6.93;;
20093;SDS011;10206;48.012;10.030;2023-04-06T12:14:01;9.10;;;7.40;;
20093;SDS011;10206;48.012;10.030;2023-04-06T12:16:30;10.77;;;7.83;;
20093;SDS011;10206;48.012;10.030;2023-04-06T12:18:56;10.13;;;7.80;;
20093;SDS011;10206;48.012;10.030;2023-04-06T12:21:22;8.97;;;7.97;;
20093;SDS011;10206;48.012;10.030;2023-04-06T12:23:48;8.00;;;7.20;;
20093;SDS011;10206;48.012;10.030;2023-04-06T12:26:15;8.63;;;7.43;;
20093;SDS011;10206;48.012;10.030;2023-04-06T12:28:41;11.77;;;8.50;;
20093;SDS011;10206;48.012;10.030;2023-04-06T12:31:07;8.53;;;6.63;;
20093;SDS011;10206;48.012;10.030;2023-04-06T12:33:39;7.63;;;6.83;;
20093;SDS011;10206;48.012;10.030;2023-04-06T12:36:10;7.63;;;6.30;;
20093;SDS011;10206;48.012;10.030;2023-04-06T12:38:40;9.17;;;7.80;;
20093;SDS011;10206;48.012;10.030;2023-04-06T12:41:09;10.03;;;7.87;;
20093;SDS011;10206;48.012;10.030;2023-04-06T12:43:35;9.43;;;7.30;;
20093;SDS011;10206;48.012;10.030;2023-04-06T12:46:01;9.60;;;8.60;;
20093;SDS011;10206;48.012;10.030;2023-04-06T12:48:28;10.00;;;7.93;;
20093;SDS011;10206;48.012;10.030;2023-04-06T12:50:57;10.87;;;8.30;;
20093;SDS011;10206;48.012;10.030;2023-04-06T12:53:24;9.37;;;7.77;;
20093;SDS011;10206;48.012;10.030;2023-04-06T12:55:51;9.63;;;7.97;;
20093;SDS011;10206;48.012;10.030;2023-04-06T12:58:18;8.97;;;8.00;;
20093;SDS011;10206;48.012;10.030;2023-04-06T13:00:45;13.50;;;9.07;;
20093;SDS011;10206;48.012;10.030;2023-04-06T13:03:12;10.60;;;8.50;;
20093;SDS011;10206;48.012;10.030;2023-04-06T13:05:44;9.30;;;7.93;;
20093;SDS011;10206;48.012;10.030;2023-04-06T13:08:14;9.20;;;7.70;;
20093;SDS011;10206;48.012;10.030;2023-04-06T13:10:46;8.90;;;7.80;;
20093;SDS011;10206;48.012;10.030;2023-04-06T13:13:14;8.73;;;7.43;;
20093;SDS011;10206;48.012;10.030;2023-04-06T13:15:41;9.93;;;7.57;;
20093;SDS011;10206;48.012;10.030;2023-04-06T13:18:07;8.40;;;6.87;;
20093;SDS011;10206;48.012;10.030;2023-04-06T13:20:34;11.97;;;7.60;;
20093;SDS011;10206;48.012;10.030;2023-04-06T13:23:01;9.13;;;6.10;;
20093;SDS011;10206;48.012;10.030;2023-04-06T13:25:27;6.53;;;5.80;;
20093;SDS011;10206;48.012;10.030;2023-04-06T13:27:54;6.93;;;5.87;;
20093;SDS011;10206;48.012;10.030;2023-04-06T13:30:20;8.20;;;5.80;;
20093;SDS011;10206;48.012;10.030;2023-04-06T13:32:47;8.20;;;6.37;;
20093;SDS011;10206;48.012;10.030;2023-04-06T13:35:13;8.17;;;6.47;;
20093;SDS011;10206;48.012;10.030;2023-04-06T13:37:39;10.67;;;7.70;;
20093;SDS011;10206;48.012;10.030;2023-04-06T13:40:05;8.07;;;5.83;;
20093;SDS011;10206;48.012;10.030;2023-04-06T13:42:32;7.70;;;6.37;;
20093;SDS011;10206;48.012;10.030;2023-04-06T13:45:00;7.67;;;6.47;;
20093;SDS011;10206;48.012;10.030;2023-04-06T13:47:26;8.97;;;6.30;;
20093;SDS011;10206;48.012;10.030;2023-04-06T13:49:53;7.50;;;6.27;;
20093;SDS011;10206;48.012;10.030;2023-04-06T13:52:20;9.27;;;7.30;;
20093;SDS011;10206;48.012;10.030;2023-04-06T13:54:46;9.37;;;7.10;;
20093;SDS011;10206;48.012;10.030;2023-04-06T13:57:13;11.33;;;6.37;;
20093;SDS011;10206;48.012;10.030;2023-04-06T13:59:39;7.30;;;6.03;;
20093;SDS011;10206;48.012;10.030;2023-04-06T14:02:06;8.07;;;6.27;;
20093;SDS011;10206;48.012;10.030;2023-04-06T14:04:34;7.07;;;5.60;;
20093;SDS011;10206;48.012;10.030;2023-04-06T14:07:01;9.80;;;7.17;;
20093;SDS011;10206;48.012;10.030;2023-04-06T14:09:28;12.97;;;5.87;;
20093;SDS011;10206;48.012;10.030;2023-04-06T14:11:55;7.03;;;5.47;;
20093;SDS011;10206;48.012;10.030;2023-04-06T14:14:22;6.70;;;5.90;;
20093;SDS011;10206;48.012;10.030;2023-04-06T14:16:48;8.50;;;5.67;;
20093;SDS011;10206;48.012;10.030;2023-04-06T14:19:15;6.60;;;5.47;;
20093;SDS011;10206;48.012;10.030;2023-04-06T14:21:46;8.63;;;6.07;;
20093;SDS011;10206;48.012;10.030;2023-04-06T14:24:17;9.97;;;6.50;;
20093;SDS011;10206;48.012;10.030;2023-04-06T14:26:44;8.13;;;6.60;;
20093;SDS011;10206;48.012;10.030;2023-04-06T14:29:10;37.40;;;19.40;;
20093;SDS011;10206;48.012;10.030;2023-04-06T14:31:36;9.00;;;6.83;;